Time;durP1;ratioP1;P1;durP2;ratioP2;P2;SDS_P1;SDS_P2;PMS_P1;PMS_P2;Temp;Humidity;BMP_temperature;BMP_pressure;BME280_temperature;BME280_humidity;BME280_pressure;Samples;Min_cycle;Max_cycle;Signal;HPM_P1;HPM_P2
2022/04/19 00:00:24;;;;;;;2.20;1.93;;;7.00;93.50;;;;;;7354191;19;20340;-74
2022/04/19 00:02:49;;;;;;;2.25;2.05;;;7.00;93.80;;;;;;7375194;19;20344;-73
2022/04/19 00:05:15;;;;;;;2.97;2.03;;;7.10;94.30;;;;;;7377846;19;20320;-72
2022/04/19 00:07:42;;;;;;;2.50;2.10;;;7.00;94.70;;;;;;7375147;19;20339;-72
2022/04/19 00:10:07;;;;;;;2.80;2.00;;;6.90;94.80;;;;;;7374318;19;20378;-73
2022/04/19 00:12:33;;;;;;;2.30;1.90;;;7.00;95.10;;;;;;7377500;19;20341;-73
2022/04/19 00:14:59;;;;;;;2.60;2.30;;;7.10;95.90;;;;;;7374353;19;20341;-72
2022/04/19 00:17:25;;;;;;;2.13;1.92;;;7.00;96.20;;;;;;7374505;19;20328;-74
2022/04/19 00:19:51;;;;;;;2.55;2.08;;;7.00;96.70;;;;;;7372507;19;20329;-73
2022/04/19 00:22:19;;;;;;;1.83;1.73;;;7.00;96.60;;;;;;7375294;19;20756;-75
2022/04/19 00:24:45;;;;;;;2.33;2.13;;;7.00;97.10;;;;;;7376328;19;20348;-72
2022/04/19 00:27:11;;;;;;;2.07;1.87;;;7.00;97.20;;;;;;7377455;19;20327;-73
2022/04/19 00:29:41;;;;;;;1.93;1.80;;;7.00;97.50;;;;;;7375552;19;20688;-73
2022/04/19 00:32:11;;;;;;;3.17;2.30;;;7.00;97.30;;;;;;7373668;19;20385;-72
2022/04/19 00:34:38;;;;;;;2.93;1.90;;;7.00;97.80;;;;;;7376986;19;20316;-72
2022/04/19 00:37:05;;;;;;;2.13;1.92;;;6.90;99.30;;;;;;7378684;19;20479;-73
2022/04/19 00:39:31;;;;;;;2.33;2.13;;;6.90;99.20;;;;;;7375478;19;20320;-73
2022/04/19 00:41:57;;;;;;;2.15;1.90;;;6.90;99.90;;;;;;7376610;19;20933;-75
2022/04/19 00:44:23;;;;;;;2.10;1.90;;;6.80;99.90;;;;;;7375945;19;20380;-73
2022/04/19 00:46:49;;;;;;;2.88;2.40;;;6.80;99.90;;;;;;7375556;19;20333;-74
2022/04/19 00:49:18;;;;;;;3.67;1.88;;;6.80;99.90;;;;;;7376776;19;20331;-73
2022/04/19 00:51:45;;;;;;;3.42;1.90;;;6.60;99.90;;;;;;7376682;19;20462;-73
2022/04/19 00:54:13;;;;;;;2.90;2.10;;;6.50;99.90;;;;;;7375456;19;20356;-73
2022/04/19 00:56:40;;;;;;;2.30;1.95;;;6.50;99.90;;;;;;7375490;19;20998;-73
2022/04/19 00:59:09;;;;;;;2.60;1.92;;;6.60;99.90;;;;;;7374524;19;20400;-74
2022/04/19 01:01:37;;;;;;;2.90;2.17;;;6.60;99.90;;;;;;7371416;19;20888;-74
2022/04/19 01:04:03;;;;;;;2.30;1.80;;;6.60;99.90;;;;;;7375466;19;20333;-71
2022/04/19 01:06:29;;;;;;;2.42;2.00;;;6.50;99.90;;;;;;7376845;19;20349;-73
2022/04/19 01:08:55;;;;;;;3.15;2.40;;;6.40;99.90;;;;;;7381436;19;20357;-73
2022/04/19 01:14:09;;;;;;;2.65;2.45;;;6.20;99.90;;;;;;7276743;19;2004580;-72
2022/04/19 01:16:36;;;;;;;2.13;2.00;;;6.20;99.90;;;;;;7378519;19;21030;-73
2022/04/19 01:19:03;;;;;;;3.47;1.80;;;6.20;99.90;;;;;;7380995;19;20348;-73
2022/04/19 01:21:42;;;;;;;2.50;1.92;;;6.20;99.90;;;;;;7380795;19;20970;-76
2022/04/19 01:24:14;;;;;;;2.58;2.05;;;6.20;99.90;;;;;;7379018;19;20344;-74
2022/04/19 01:26:41;;;;;;;2.85;2.20;;;6.30;99.90;;;;;;7378466;19;20371;-73
2022/04/19 01:29:07;;;;;;;2.90;2.30;;;6.30;99.90;;;;;;7367172;19;20495;-71
2022/04/19 01:31:33;;;;;;;2.50;2.30;;;6.20;99.90;;;;;;7374889;19;20312;-74
2022/04/19 01:33:59;;;;;;;4.10;2.17;;;6.10;99.90;;;;;;7383026;19;20350;-72
2022/04/19 01:36:25;;;;;;;3.07;2.40;;;6.10;99.90;;;;;;7380476;19;20900;-73
2022/04/19 01:38:51;;;;;;;3.00;2.40;;;6.10;99.90;;;;;;7381719;19;20460;-72
2022/04/19 01:41:20;;;;;;;3.30;2.53;;;6.20;99.90;;;;;;7379349;19;20313;-73
2022/04/19 01:43:56;;;;;;;3.13;2.47;;;6.10;99.90;;;;;;7276736;19;2006215;-72
2022/04/19 01:46:23;;;;;;;2.50;2.30;;;6.00;99.90;;;;;;7380326;19;20349;-73
2022/04/19 01:48:50;;;;;;;2.40;2.20;;;6.00;99.90;;;;;;7381973;19;20356;-74
2022/04/19 01:51:17;;;;;;;2.95;2.60;;;6.10;99.90;;;;;;7376466;19;20341;-73
2022/04/19 01:53:43;;;;;;;2.63;2.30;;;6.10;99.90;;;;;;7379715;19;20345;-73
2022/04/19 01:56:09;;;;;;;2.40;2.20;;;6.10;99.90;;;;;;7379248;19;20348;-73
2022/04/19 01:58:53;;;;;;;2.70;2.50;;;6.10;99.90;;;;;;7379109;19;20440;-72
2022/04/19 02:01:23;;;;;;;2.88;2.45;;;6.00;99.90;;;;;;7376684;19;20908;-73
2022/04/19 02:03:49;;;;;;;3.05;2.45;;;6.00;99.90;;;;;;7381369;19;20410;-73
2022/04/19 02:06:20;;;;;;;2.33;2.13;;;6.00;99.90;;;;;;7375779;19;20403;-72
2022/04/19 02:08:46;;;;;;;3.03;2.25;;;5.90;99.90;;;;;;7379201;19;20442;-72
2022/04/19 02:11:17;;;;;;;2.70;2.45;;;5.90;99.90;;;;;;7381062;19;20320;-74
2022/04/19 02:13:47;;;;;;;2.47;2.22;;;5.90;99.90;;;;;;7378946;19;20313;-75
2022/04/19 02:16:19;;;;;;;2.15;1.98;;;5.90;99.90;;;;;;7357470;19;20348;-73
2022/04/19 02:18:44;;;;;;;3.53;2.38;;;6.00;99.90;;;;;;7379795;19;20348;-75
2022/04/19 02:21:10;;;;;;;2.92;2.35;;;6.00;99.90;;;;;;7378632;19;20420;-73
2022/04/19 02:23:36;;;;;;;2.03;1.90;;;6.00;99.90;;;;;;7378449;19;20444;-75
2022/04/19 02:26:02;;;;;;;2.45;1.85;;;6.00;99.90;;;;;;7378666;19;20726;-74
2022/04/19 02:28:29;;;;;;;2.60;2.40;;;6.00;99.90;;;;;;7382669;19;20318;-73
2022/04/19 02:31:11;;;;;;;3.08;2.50;;;6.00;99.90;;;;;;7278334;19;2004426;-73
2022/04/19 02:33:42;;;;;;;2.05;1.88;;;6.00;99.90;;;;;;7382685;19;20353;-73
2022/04/19 02:36:08;;;;;;;3.03;2.25;;;6.00;99.90;;;;;;7376418;19;20337;-73
2022/04/19 02:38:35;;;;;;;2.75;2.30;;;6.00;99.90;;;;;;7380897;19;20329;-75
2022/04/19 02:41:01;;;;;;;4.57;2.40;;;5.90;99.90;;;;;;7381877;19;20741;-73
2022/04/19 02:43:26;;;;;;;3.33;2.43;;;5.90;99.90;;;;;;7379451;19;20324;-73
2022/04/19 02:45:54;;;;;;;3.93;2.37;;;5.90;99.90;;;;;;7378742;19;20320;-73
2022/04/19 02:48:25;;;;;;;2.35;2.00;;;5.80;99.90;;;;;;7378839;19;20317;-74
2022/04/19 02:50:53;;;;;;;2.67;2.40;;;5.80;99.90;;;;;;7377587;19;20341;-75
2022/04/19 02:53:19;;;;;;;2.25;2.05;;;5.80;99.90;;;;;;7381481;19;20300;-73
2022/04/19 02:55:45;;;;;;;2.75;2.25;;;5.90;99.90;;;;;;7377543;19;20340;-74
2022/04/19 02:58:11;;;;;;;2.47;2.27;;;5.80;99.90;;;;;;7380865;19;20336;-75
2022/04/19 03:00:37;;;;;;;3.13;2.63;;;5.80;99.90;;;;;;7376866;19;20837;-73
2022/04/19 03:03:03;;;;;;;2.67;2.40;;;5.80;99.90;;;;;;7379672;19;20416;-73
2022/04/19 03:05:30;;;;;;;3.13;2.53;;;5.60;99.90;;;;;;7375625;19;20301;-72
2022/04/19 03:07:56;;;;;;;3.03;2.50;;;5.70;99.90;;;;;;7378145;19;20332;-72
2022/04/19 03:10:23;;;;;;;2.30;2.00;;;5.70;99.90;;;;;;7375556;19;20329;-75
2022/04/19 03:12:51;;;;;;;2.30;2.17;;;5.70;99.90;;;;;;7366988;19;20339;-72
2022/04/19 03:15:20;;;;;;;3.30;2.58;;;5.70;99.90;;;;;;7374271;19;20472;-72
2022/04/19 03:17:46;;;;;;;3.05;2.38;;;5.70;99.90;;;;;;7377317;19;20345;-73
2022/04/19 03:20:14;;;;;;;2.80;2.50;;;5.70;99.90;;;;;;7377139;19;20343;-74
2022/04/19 03:28:17;;;;;;;2.90;2.50;;;5.60;99.90;;;;;;7381103;19;20668;-73
2022/04/19 03:30:43;;;;;;;2.53;2.20;;;5.50;99.90;;;;;;7373249;19;21223;-72
2022/04/19 03:33:09;;;;;;;3.13;2.60;;;5.50;99.90;;;;;;7379382;19;20876;-75
2022/04/19 03:35:36;;;;;;;2.67;2.40;;;5.50;99.90;;;;;;7377971;19;20648;-73
2022/04/19 03:38:04;;;;;;;5.10;2.22;;;5.40;99.90;;;;;;7375680;19;20321;-72
2022/04/19 03:40:30;;;;;;;2.20;2.00;;;5.30;99.90;;;;;;7376374;19;20997;-73
2022/04/19 03:42:56;;;;;;;3.33;2.58;;;5.40;99.90;;;;;;7377072;19;20345;-77
2022/04/19 03:45:23;;;;;;;3.13;2.40;;;5.20;99.90;;;;;;7375004;19;20343;-76
2022/04/19 03:47:49;;;;;;;3.15;2.35;;;5.20;99.90;;;;;;7377521;19;21157;-74
2022/04/19 03:50:15;;;;;;;2.37;2.17;;;5.20;99.90;;;;;;7373465;19;20348;-73
2022/04/19 03:52:42;;;;;;;2.30;2.10;;;5.10;99.90;;;;;;7377455;19;20361;-72
2022/04/19 03:55:08;;;;;;;3.08;2.15;;;5.00;99.90;;;;;;7378266;19;20336;-72
2022/04/19 03:57:36;;;;;;;3.67;2.33;;;5.00;99.90;;;;;;7378353;19;20333;-72
2022/04/19 04:00:02;;;;;;;2.60;2.40;;;4.90;99.90;;;;;;7375675;19;20646;-71
2022/04/19 04:02:31;;;;;;;2.65;2.40;;;4.80;99.90;;;;;;7378653;19;20328;-74
2022/04/19 04:04:57;;;;;;;2.70;2.37;;;4.80;99.90;;;;;;7377560;19;20365;-74
2022/04/19 04:07:26;;;;;;;3.43;2.40;;;4.70;99.90;;;;;;7377571;19;20340;-73
2022/04/19 04:09:52;;;;;;;2.70;2.47;;;4.70;99.90;;;;;;7377078;19;21250;-73
2022/04/19 04:12:18;;;;;;;3.72;2.70;;;4.70;99.90;;;;;;7375368;19;20341;-76
2022/04/19 04:14:43;;;;;;;3.23;2.47;;;4.60;99.90;;;;;;7378719;19;20383;-75
2022/04/19 04:17:10;;;;;;;2.70;2.27;;;4.50;99.90;;;;;;7379506;19;20316;-73
2022/04/19 04:19:36;;;;;;;3.23;2.80;;;4.60;99.90;;;;;;7374764;19;20337;-73
2022/04/19 04:22:01;;;;;;;2.80;2.47;;;4.50;99.90;;;;;;7380447;19;20682;-73
2022/04/19 04:24:28;;;;;;;2.50;2.30;;;4.50;99.90;;;;;;7381400;19;20332;-73
2022/04/19 04:26:55;;;;;;;3.78;2.55;;;4.30;99.90;;;;;;7377222;19;20346;-80
2022/04/19 04:29:23;;;;;;;3.08;2.40;;;4.30;99.90;;;;;;7375949;19;20334;-75
2022/04/19 04:31:51;;;;;;;2.70;2.50;;;4.30;99.90;;;;;;7375999;19;20317;-73
2022/04/19 04:34:17;;;;;;;3.40;2.60;;;4.30;99.90;;;;;;7374875;19;20331;-74
2022/04/19 04:36:45;;;;;;;2.70;2.37;;;4.50;99.90;;;;;;7371743;19;20970;-72
2022/04/19 04:39:15;;;;;;;3.38;2.58;;;4.30;99.90;;;;;;7374691;19;20325;-74
2022/04/19 04:42:07;;;;;;;2.87;2.30;;;4.30;99.90;;;;;;7277281;19;2004416;-74
2022/04/19 04:44:33;;;;;;;2.97;2.60;;;4.20;99.90;;;;;;7383804;19;20895;-74
2022/04/19 04:49:44;;;;;;;2.83;2.40;;;4.20;99.90;;;;;;7279596;19;2004245;-77
2022/04/19 04:52:19;;;;;;;3.40;2.47;;;4.20;99.90;;;;;;7379963;19;20332;-78
2022/04/19 04:54:47;;;;;;;2.65;2.40;;;4.30;99.90;;;;;;7383438;19;20368;-76
2022/04/19 04:57:19;;;;;;;2.75;2.50;;;4.30;99.90;;;;;;7383027;19;20332;-74
2022/04/19 04:59:47;;;;;;;3.80;2.33;;;4.30;99.90;;;;;;7383621;19;20926;-74
2022/04/19 05:02:13;;;;;;;4.22;2.90;;;4.40;99.90;;;;;;7380132;19;20901;-73
2022/04/19 05:04:40;;;;;;;2.92;2.63;;;4.40;99.90;;;;;;7383735;19;20368;-73
2022/04/19 05:07:05;;;;;;;2.92;2.35;;;4.40;99.90;;;;;;7383594;19;20911;-72
2022/04/19 05:09:39;;;;;;;3.63;2.55;;;4.60;99.90;;;;;;7382029;19;20727;-73
2022/04/19 05:12:05;;;;;;;4.22;2.80;;;4.70;99.90;;;;;;7380307;19;20336;-70
2022/04/19 05:14:32;;;;;;;3.80;2.67;;;4.80;99.90;;;;;;7381959;19;20355;-73
2022/04/19 05:16:57;;;;;;;3.73;2.63;;;4.90;99.90;;;;;;7380676;19;20329;-73
2022/04/19 05:19:23;;;;;;;2.83;2.53;;;5.00;99.90;;;;;;7383281;19;20339;-72
2022/04/19 05:21:49;;;;;;;2.78;2.47;;;5.10;99.90;;;;;;7379983;19;20304;-71
2022/04/19 05:24:15;;;;;;;3.60;2.70;;;5.30;99.90;;;;;;7384157;19;20359;-71
2022/04/19 05:26:41;;;;;;;3.17;2.80;;;5.40;99.90;;;;;;7380939;19;20337;-72
2022/04/19 05:29:07;;;;;;;3.13;2.57;;;5.60;99.90;;;;;;7379478;19;20293;-72
2022/04/19 05:31:33;;;;;;;2.77;2.50;;;5.70;99.90;;;;;;7375677;19;20309;-71
2022/04/19 05:33:59;;;;;;;3.40;2.80;;;5.80;99.90;;;;;;7376961;19;20308;-72
2022/04/19 05:36:25;;;;;;;3.40;2.67;;;6.00;99.90;;;;;;7378846;19;20324;-72
2022/04/19 05:38:52;;;;;;;3.70;2.83;;;6.10;99.90;;;;;;7376950;19;20383;-72
2022/04/19 05:41:20;;;;;;;4.78;3.08;;;6.20;99.90;;;;;;7376118;19;20882;-72
2022/04/19 05:43:47;;;;;;;3.03;2.40;;;6.40;99.90;;;;;;7382221;19;20332;-73
2022/04/19 05:46:13;;;;;;;2.97;2.65;;;6.40;99.90;;;;;;7381167;19;20425;-72
2022/04/19 05:48:40;;;;;;;4.70;2.70;;;6.50;99.90;;;;;;7382962;19;20315;-72
2022/04/19 05:51:06;;;;;;;3.55;2.67;;;6.70;99.90;;;;;;7380077;19;20336;-71
2022/04/19 05:53:32;;;;;;;3.28;2.88;;;6.70;99.90;;;;;;7377539;19;21025;-72
2022/04/19 05:55:58;;;;;;;3.33;2.55;;;6.80;99.90;;;;;;7382816;19;20337;-72
2022/04/19 05:58:24;;;;;;;3.10;2.67;;;7.00;99.90;;;;;;7384145;19;20330;-72
2022/04/19 06:00:50;;;;;;;4.35;2.70;;;7.20;99.90;;;;;;7378332;19;20344;-73
2022/04/19 06:06:00;;;;;;;3.33;2.35;;;7.50;99.90;;;;;;7285395;19;2004462;-77
2022/04/19 06:08:26;;;;;;;3.03;2.38;;;7.60;99.90;;;;;;7383616;19;20313;-72
2022/04/19 06:11:02;;;;;;;2.83;2.55;;;7.80;99.90;;;;;;7378947;19;20341;-75
2022/04/19 06:13:28;;;;;;;2.33;2.13;;;7.80;99.90;;;;;;7382097;19;20312;-72
2022/04/19 06:15:54;;;;;;;5.43;2.40;;;7.90;99.90;;;;;;7381504;19;20352;-74
2022/04/19 06:18:20;;;;;;;2.45;2.10;;;7.90;99.90;;;;;;7383934;19;20316;-72
2022/04/19 06:20:53;;;;;;;4.30;2.50;;;7.90;99.90;;;;;;7378706;19;20336;-73
2022/04/19 06:23:20;;;;;;;2.50;2.10;;;7.90;99.90;;;;;;7381733;19;20323;-72
2022/04/19 06:25:45;;;;;;;2.97;2.15;;;7.90;99.90;;;;;;7379290;19;20922;-72
2022/04/19 06:28:11;;;;;;;2.47;2.17;;;8.10;99.90;;;;;;7380677;19;20355;-75
2022/04/19 06:31:03;;;;;;;2.30;2.10;;;8.20;99.90;;;;;;7378439;19;20332;-73
2022/04/19 06:33:29;;;;;;;2.00;1.80;;;8.30;99.90;;;;;;7380783;19;20317;-73
2022/04/19 06:35:55;;;;;;;2.97;2.20;;;8.30;99.90;;;;;;7378923;19;20308;-73
2022/04/19 06:38:21;;;;;;;3.03;2.30;;;8.30;99.90;;;;;;7380684;19;20742;-72
2022/04/19 06:40:46;;;;;;;3.53;2.30;;;8.50;99.90;;;;;;7379651;19;20332;-73
2022/04/19 06:43:12;;;;;;;4.13;2.20;;;8.60;99.90;;;;;;7381196;19;20337;-73
2022/04/19 06:46:08;;;;;;;3.28;2.17;;;8.70;99.90;;;;;;7274946;19;2005756;-75
2022/04/19 06:48:34;;;;;;;2.47;2.10;;;8.80;99.90;;;;;;7380769;19;20316;-73
2022/04/19 06:51:01;;;;;;;2.70;2.00;;;8.80;99.60;;;;;;7381643;19;20309;-71
2022/04/19 06:53:29;;;;;;;3.05;2.30;;;9.00;99.90;;;;;;7380882;19;20417;-73
2022/04/19 06:55:59;;;;;;;2.90;2.00;;;9.10;99.90;;;;;;7378048;19;20313;-73
2022/04/19 06:58:24;;;;;;;2.20;1.97;;;9.20;99.70;;;;;;7379247;19;21049;-73
2022/04/19 07:00:53;;;;;;;2.03;1.85;;;9.30;99.90;;;;;;7375543;19;20341;-74
2022/04/19 07:03:19;;;;;;;2.20;2.00;;;9.50;99.40;;;;;;7378359;19;20332;-78
2022/04/19 07:06:08;;;;;;;2.03;1.87;;;9.70;98.90;;;;;;7379141;19;20893;-75
2022/04/19 07:08:35;;;;;;;2.33;2.13;;;9.80;98.80;;;;;;7379271;19;20328;-74
2022/04/19 07:11:03;;;;;;;2.30;1.90;;;10.00;97.70;;;;;;7377086;19;20309;-73
2022/04/19 07:13:50;;;;;;;2.45;1.80;;;10.10;97.40;;;;;;7277508;19;2004478;-73
2022/04/19 07:16:52;;;;;;;1.75;1.60;;;10.20;95.70;;;;;;7276628;19;2004988;-75
2022/04/19 07:19:18;;;;;;;1.65;1.55;;;10.40;95.90;;;;;;7381041;19;20363;-77
2022/04/19 07:27:19;;;;;;;2.25;1.40;;;10.60;92.80;;;;;;7276068;19;2004313;-74
2022/04/19 07:29:45;;;;;;;1.38;1.25;;;10.80;93.10;;;;;;7377486;19;20337;-75
2022/04/19 07:32:11;;;;;;;1.83;1.60;;;10.90;94.50;;;;;;7376955;19;20344;-77
2022/04/19 07:34:56;;;;;;;1.50;1.27;;;11.10;93.70;;;;;;7378569;19;20380;-73
2022/04/19 07:37:22;;;;;;;1.60;1.50;;;11.30;92.70;;;;;;7378167;19;20877;-75
2022/04/19 07:39:49;;;;;;;1.33;1.23;;;11.50;92.10;;;;;;7381146;19;20638;-74
2022/04/19 07:42:14;;;;;;;1.77;1.60;;;11.60;91.30;;;;;;7378134;19;20329;-74
2022/04/19 07:44:44;;;;;;;1.60;1.50;;;11.70;89.50;;;;;;7382162;19;20895;-71
2022/04/19 07:47:10;;;;;;;1.73;1.50;;;11.70;87.50;;;;;;7390377;19;20812;-76
2022/04/19 07:49:36;;;;;;;1.92;1.60;;;11.70;85.80;;;;;;7380246;19;21170;-72
2022/04/19 07:52:02;;;;;;;1.50;1.40;;;11.80;87.60;;;;;;7377749;19;20338;-74
2022/04/19 07:54:28;;;;;;;1.85;1.70;;;12.00;86.10;;;;;;7379948;19;20313;-73
2022/04/19 07:56:54;;;;;;;1.90;1.80;;;12.00;84.20;;;;;;7378867;19;20339;-73
2022/04/19 07:59:26;;;;;;;1.85;1.48;;;12.00;82.70;;;;;;7379376;19;20964;-73
2022/04/19 08:01:58;;;;;;;1.83;1.40;;;12.10;83.40;;;;;;7274215;19;2004457;-73
2022/04/19 08:04:24;;;;;;;2.97;1.30;;;12.30;85.40;;;;;;7378699;19;20694;-73
2022/04/19 08:06:49;;;;;;;1.80;1.20;;;12.60;83.70;;;;;;7375905;19;20345;-74
2022/04/19 08:09:17;;;;;;;1.40;1.30;;;12.70;84.30;;;;;;7372350;19;20427;-73
2022/04/19 08:11:43;;;;;;;1.50;1.40;;;12.80;81.40;;;;;;7374962;19;20412;-73
2022/04/19 08:14:09;;;;;;;1.50;1.40;;;12.90;78.70;;;;;;7374069;19;20884;-74
2022/04/19 08:16:35;;;;;;;1.33;1.23;;;12.80;78.50;;;;;;7374542;19;20336;-77
2022/04/19 08:19:01;;;;;;;1.98;1.50;;;12.80;78.40;;;;;;7375761;19;20332;-72
2022/04/19 08:21:27;;;;;;;1.67;1.35;;;13.00;78.90;;;;;;7373478;19;20293;-72
2022/04/19 08:23:53;;;;;;;4.25;1.30;;;13.10;76.40;;;;;;7375013;19;20337;-73
2022/04/19 08:26:20;;;;;;;2.67;1.27;;;13.00;77.10;;;;;;7374773;19;20313;-73
2022/04/19 08:28:46;;;;;;;1.27;1.17;;;13.00;77.20;;;;;;7377049;19;20857;-73
2022/04/19 08:31:12;;;;;;;3.00;1.40;;;13.10;75.50;;;;;;7371002;19;20464;-73
2022/04/19 08:33:38;;;;;;;1.17;1.13;;;13.10;76.10;;;;;;7375467;19;20394;-74
2022/04/19 08:36:04;;;;;;;1.42;1.30;;;13.40;77.30;;;;;;7375156;19;20337;-73
2022/04/19 08:38:30;;;;;;;1.30;1.20;;;13.40;74.90;;;;;;7375693;19;20353;-74
2022/04/19 08:40:56;;;;;;;1.30;1.20;;;13.40;75.80;;;;;;7371946;19;20339;-74
2022/04/19 08:43:22;;;;;;;1.40;1.30;;;13.50;74.10;;;;;;7374879;19;20340;-73
2022/04/19 08:45:48;;;;;;;2.23;1.43;;;13.50;74.70;;;;;;7373713;19;20884;-74
2022/04/19 08:48:15;;;;;;;1.50;1.40;;;13.20;75.80;;;;;;7376284;19;20329;-73
2022/04/19 08:50:41;;;;;;;1.08;1.08;;;13.00;75.00;;;;;;7373954;19;21027;-72
2022/04/19 08:58:55;;;;;;;1.52;1.38;;;12.90;76.10;;;;;;7371111;19;20463;-70
2022/04/19 09:01:21;;;;;;;1.60;1.40;;;13.10;76.70;;;;;;7368237;19;20919;-73
2022/04/19 09:03:47;;;;;;;1.80;1.40;;;13.40;75.20;;;;;;7371576;19;20328;-72
2022/04/19 09:06:23;;;;;;;1.50;1.40;;;13.60;75.60;;;;;;7319165;19;20324;-73
2022/04/19 09:09:15;;;;;;;1.90;1.63;;;13.90;74.80;;;;;;7258436;19;20500;-72
2022/04/19 09:11:46;;;;;;;3.72;1.65;;;14.10;74.50;;;;;;7363979;19;20870;-73
2022/04/19 09:14:12;;;;;;;1.87;1.40;;;14.20;71.80;;;;;;7373467;19;20325;-74
2022/04/19 09:16:38;;;;;;;2.42;1.50;;;14.30;73.00;;;;;;7351058;19;20397;-74
2022/04/19 09:19:03;;;;;;;1.70;1.60;;;14.40;71.10;;;;;;7365458;19;20301;-74
2022/04/19 09:21:39;;;;;;;1.52;1.42;;;14.50;72.30;;;;;;7373423;19;21139;-74
2022/04/19 09:24:18;;;;;;;1.92;1.70;;;14.40;71.20;;;;;;7372937;19;20423;-75
2022/04/19 09:26:44;;;;;;;1.55;1.45;;;14.30;70.00;;;;;;7377313;19;20308;-73
2022/04/19 09:29:21;;;;;;;2.00;1.40;;;14.40;72.00;;;;;;7381575;19;20845;-73
2022/04/19 09:31:50;;;;;;;2.33;1.70;;;14.40;72.00;;;;;;7275939;19;2004823;-73
2022/04/19 09:34:34;;;;;;;1.40;1.30;;;14.40;70.50;;;;;;7380570;19;20316;-73
2022/04/19 09:37:10;;;;;;;1.95;1.60;;;14.20;71.00;;;;;;7282013;19;2004304;-72
2022/04/19 09:39:37;;;;;;;1.60;1.50;;;14.10;71.30;;;;;;7277964;19;2004294;-72
2022/04/19 09:42:10;;;;;;;1.70;1.60;;;13.80;72.10;;;;;;7378608;19;20372;-73
2022/04/19 09:44:37;;;;;;;1.67;1.57;;;13.60;71.00;;;;;;7378992;19;20333;-74
2022/04/19 09:47:10;;;;;;;2.80;1.83;;;13.60;70.60;;;;;;7381858;19;20316;-74
2022/04/19 09:49:53;;;;;;;2.63;1.77;;;13.30;70.30;;;;;;7380287;19;20309;-72
2022/04/19 09:52:22;;;;;;;1.60;1.50;;;13.30;70.70;;;;;;7275229;19;2004419;-73
2022/04/19 09:55:06;;;;;;;1.80;1.70;;;13.60;71.10;;;;;;7381511;19;20309;-74
2022/04/19 09:57:34;;;;;;;1.60;1.50;;;14.10;73.70;;;;;;7279296;19;2005614;-73
2022/04/19 10:00:00;;;;;;;1.60;1.50;;;14.80;72.70;;;;;;7379476;19;20592;-73
2022/04/19 10:08:11;;;;;;;1.65;1.55;;;15.70;68.10;;;;;;7278459;19;2004673;-72
2022/04/19 10:10:37;;;;;;;1.92;1.60;;;15.70;66.70;;;;;;7274938;19;2004493;-73
2022/04/19 10:13:03;;;;;;;2.15;1.60;;;15.60;65.60;;;;;;7380806;19;20352;-73
2022/04/19 10:15:32;;;;;;;2.10;1.57;;;15.50;68.60;;;;;;7377471;19;21169;-73
2022/04/19 10:17:58;;;;;;;3.03;1.65;;;15.50;66.90;;;;;;7382440;19;20348;-73
2022/04/19 10:20:33;;;;;;;2.42;1.60;;;15.30;66.20;;;;;;7378335;19;20460;-73
2022/04/19 10:23:08;;;;;;;1.80;1.38;;;15.70;67.60;;;;;;7377108;19;21012;-73
2022/04/19 10:25:44;;;;;;;1.70;1.60;;;15.70;67.10;;;;;;7377734;19;20313;-73
2022/04/19 10:28:11;;;;;;;2.10;1.70;;;15.30;65.30;;;;;;7379285;19;20332;-76
2022/04/19 10:30:38;;;;;;;1.70;1.55;;;15.40;67.70;;;;;;7376617;19;20312;-75
2022/04/19 10:33:40;;;;;;;2.53;1.80;;;15.60;66.30;;;;;;7379025;19;20376;-76
2022/04/19 10:36:14;;;;;;;1.80;1.70;;;15.90;65.70;;;;;;7277486;19;2004276;-74
2022/04/19 10:38:40;;;;;;;2.20;1.60;;;15.90;65.60;;;;;;7378121;19;20349;-73
2022/04/19 10:41:05;;;;;;;1.60;1.50;;;15.20;64.80;;;;;;7378941;19;20353;-73
2022/04/19 10:43:31;;;;;;;1.77;1.63;;;14.90;65.10;;;;;;7378089;19;20324;-74
2022/04/19 10:46:16;;;;;;;2.23;1.70;;;14.60;66.00;;;;;;7378456;19;21005;-73
2022/04/19 10:49:20;;;;;;;1.85;1.60;;;14.50;66.50;;;;;;7379949;19;20436;-73
2022/04/19 10:51:46;;;;;;;2.42;1.70;;;14.00;65.10;;;;;;7273761;19;2004702;-70
2022/04/19 10:54:13;;;;;;;1.60;1.50;;;13.80;68.80;;;;;;7378654;19;20374;-73
2022/04/19 11:00:01;;;;;;;2.10;1.58;;;13.50;68.90;;;;;;7131316;19;2004451;-72
2022/04/19 11:02:35;;;;;;;1.45;1.35;;;13.60;70.50;;;;;;7375975;19;20316;-74
2022/04/19 11:05:02;;;;;;;2.50;1.60;;;13.50;69.00;;;;;;7381383;19;20337;-74
2022/04/19 11:07:41;;;;;;;2.70;1.52;;;13.40;71.10;;;;;;7382193;19;20869;-73
2022/04/19 11:10:06;;;;;;;1.33;1.20;;;13.30;70.20;;;;;;7378789;19;20341;-79
2022/04/19 11:13:01;;;;;;;1.50;1.40;;;13.80;69.90;;;;;;7377941;19;20320;-74
2022/04/19 11:15:37;;;;;;;1.83;1.40;;;14.40;69.20;;;;;;7274229;19;2004196;-74
2022/04/19 11:18:22;;;;;;;2.03;1.80;;;15.20;68.50;;;;;;7377364;19;20328;-73
2022/04/19 11:20:47;;;;;;;1.30;1.20;;;15.90;66.40;;;;;;7374219;19;20336;-73
2022/04/19 11:23:20;;;;;;;1.58;1.23;;;15.30;63.40;;;;;;7376144;19;20344;-74
2022/04/19 11:25:46;;;;;;;2.15;1.35;;;15.10;65.20;;;;;;7376324;19;20332;-74
2022/04/19 11:28:11;;;;;;;1.25;1.20;;;14.90;63.80;;;;;;7380637;19;20350;-76
2022/04/19 11:31:09;;;;;;;1.43;1.27;;;14.30;63.40;;;;;;7376582;19;20841;-73
2022/04/19 11:33:36;;;;;;;1.42;1.33;;;14.10;64.40;;;;;;7274276;19;2005077;-74
2022/04/19 11:36:14;;;;;;;1.20;1.10;;;14.00;65.10;;;;;;7377166;19;20671;-74
2022/04/19 11:38:50;;;;;;;1.17;1.17;;;14.30;67.60;;;;;;7378562;19;20353;-73
2022/04/19 11:46:49;;;;;;;1.00;1.00;;;14.90;63.70;;;;;;7275402;19;2004460;-73
2022/04/19 11:49:25;;;;;;;1.55;1.17;;;14.90;62.80;;;;;;7376382;19;20734;-73
2022/04/19 11:51:59;;;;;;;1.27;1.20;;;15.00;60.60;;;;;;7270848;19;2004460;-72
2022/04/19 11:54:29;;;;;;;1.17;1.13;;;14.70;60.60;;;;;;7376129;19;20357;-74
2022/04/19 11:56:58;;;;;;;1.40;1.30;;;14.70;60.20;;;;;;7375976;19;21025;-74
2022/04/19 11:59:26;;;;;;;1.30;1.20;;;14.30;61.30;;;;;;7374845;19;20352;-76
2022/04/19 12:01:51;;;;;;;1.10;1.10;;;14.20;62.60;;;;;;7373453;19;20375;-75
2022/04/19 12:04:17;;;;;;;1.43;1.30;;;14.40;63.30;;;;;;7374712;19;21038;-73
2022/04/19 12:06:52;;;;;;;1.00;1.00;;;14.60;62.60;;;;;;7375495;19;20344;-74
2022/04/19 12:09:18;;;;;;;1.02;1.02;;;14.60;61.90;;;;;;7373688;19;20312;-75
2022/04/19 12:11:48;;;;;;;2.72;1.23;;;14.60;61.90;;;;;;7373771;19;21411;-74
2022/04/19 12:14:43;;;;;;;3.20;1.30;;;14.30;61.80;;;;;;7377626;19;20341;-74
2022/04/19 12:17:10;;;;;;;1.20;1.10;;;14.10;59.80;;;;;;7272647;19;2004671;-73
2022/04/19 12:19:40;;;;;;;2.08;1.30;;;14.30;61.40;;;;;;7374641;19;20348;-73
2022/04/19 12:22:22;;;;;;;2.05;1.40;;;15.10;61.40;;;;;;7371566;19;20332;-75
2022/04/19 12:24:58;;;;;;;1.10;1.10;;;15.50;57.90;;;;;;7373408;19;20443;-76
2022/04/19 12:27:24;;;;;;;1.23;1.13;;;15.50;58.10;;;;;;7375297;19;20316;-74
2022/04/19 12:30:04;;;;;;;1.40;1.30;;;15.30;58.20;;;;;;7373178;19;20787;-74
2022/04/19 12:32:54;;;;;;;1.42;1.30;;;14.90;57.90;;;;;;7372968;19;20318;-75
2022/04/19 12:35:35;;;;;;;1.92;1.40;;;14.80;58.30;;;;;;7373193;19;20332;-73
2022/04/19 12:38:13;;;;;;;1.50;1.40;;;14.60;58.10;;;;;;7377929;19;20448;-73
2022/04/19 12:40:39;;;;;;;1.40;1.30;;;14.40;57.90;;;;;;7374660;19;20348;-73
2022/04/19 12:43:05;;;;;;;1.15;1.10;;;14.30;58.20;;;;;;7373165;19;20317;-73
2022/04/19 12:45:35;;;;;;;2.50;1.67;;;14.40;59.70;;;;;;7376678;19;20320;-73
2022/04/19 12:48:01;;;;;;;2.10;1.30;;;14.40;60.10;;;;;;7379034;19;20317;-73
2022/04/19 12:50:27;;;;;;;1.50;1.40;;;14.30;58.60;;;;;;7376747;19;20348;-72
2022/04/19 12:52:53;;;;;;;1.45;1.35;;;14.00;59.60;;;;;;7374660;19;20345;-73
2022/04/19 12:55:31;;;;;;;1.42;1.33;;;13.90;60.10;;;;;;7374098;19;20389;-74
2022/04/19 12:58:09;;;;;;;1.40;1.30;;;14.10;61.60;;;;;;7373646;19;20308;-73
2022/04/19 13:00:36;;;;;;;2.13;1.50;;;14.30;61.70;;;;;;7371665;19;20325;-73
2022/04/19 13:03:02;;;;;;;1.45;1.35;;;14.50;60.20;;;;;;7378978;19;20376;-73
2022/04/19 13:12:16;;;;;;;1.60;1.48;;;14.90;60.50;;;;;;7379692;19;20313;-73
2022/04/19 13:13:42;;;;;;;1.70;1.50;;;15.10;58.70;;;;;;7384171;19;20328;-74
2022/04/19 13:16:08;;;;;;;1.85;1.50;;;14.80;59.30;;;;;;7379342;19;20443;-74
2022/04/19 13:18:34;;;;;;;1.50;1.40;;;14.80;59.60;;;;;;7380136;19;20897;-74
2022/04/19 13:21:00;;;;;;;1.60;1.50;;;14.60;59.50;;;;;;7377922;19;20348;-74
2022/04/19 13:23:26;;;;;;;1.20;1.20;;;14.70;60.00;;;;;;7380366;19;20327;-75
2022/04/19 13:25:55;;;;;;;1.33;1.23;;;14.90;59.00;;;;;;7380539;19;20297;-74
2022/04/19 13:28:25;;;;;;;1.60;1.50;;;14.60;59.10;;;;;;7381035;19;20340;-74
2022/04/19 13:30:54;;;;;;;1.67;1.58;;;14.20;60.70;;;;;;7375177;19;20358;-74
2022/04/19 13:33:20;;;;;;;2.67;1.40;;;14.80;61.20;;;;;;7380680;19;20844;-74
2022/04/19 13:35:45;;;;;;;2.27;1.50;;;14.90;59.60;;;;;;7380597;19;20316;-73
2022/04/19 13:38:23;;;;;;;1.52;1.42;;;14.90;59.30;;;;;;7377549;19;20337;-74
2022/04/19 13:40:49;;;;;;;4.20;1.67;;;14.80;59.60;;;;;;7377444;19;20358;-73
2022/04/19 13:43:15;;;;;;;2.20;1.77;;;15.50;57.70;;;;;;7380943;19;20325;-72
2022/04/19 13:45:40;;;;;;;1.90;1.70;;;16.30;57.10;;;;;;7379188;19;20353;-73